Time;durP1;ratioP1;P1;durP2;ratioP2;P2;SDS_P1;SDS_P2;PMS_P1;PMS_P2;Temp;Humidity;BMP_temperature;BMP_pressure;BME280_temperature;BME280_humidity;BME280_pressure;Samples;Min_cycle;Max_cycle;Signal;HPM_P1;HPM_P2
2022/11/29 00:00:17;;;;;;;38.27;17.13;;;;;4.20;96057.00;;;;8532498;27;20200;-73
2022/11/29 00:04:22;;;;;;;40.50;18.97;;;;;4.30;96055.00;;;;8533016;27;20539;-74
2022/11/29 00:08:25;;;;;;;45.13;18.33;;;;;4.30;96058.00;;;;8533141;27;20192;-74
2022/11/29 00:12:28;;;;;;;41.63;19.03;;;;;4.40;96056.00;;;;8532462;27;20270;-74
2022/11/29 00:17:05;;;;;;;38.53;17.63;;;;;4.40;96063.00;;;;8531325;27;20516;-73
2022/11/29 00:21:10;;;;;;;44.97;18.57;;;;;4.40;96062.00;;;;8531597;27;20212;-74
2022/11/29 00:25:13;;;;;;;44.47;19.00;;;;;4.30;96054.00;;;;8537910;27;20185;-75
2022/11/29 00:29:49;;;;;;;40.30;18.17;;;;;4.30;96052.00;;;;8539294;27;20231;-73
2022/11/29 00:33:53;;;;;;;44.93;18.50;;;;;4.30;96046.00;;;;8539341;27;20562;-73
2022/11/29 00:37:58;;;;;;;48.23;19.57;;;;;4.30;96046.00;;;;8538593;27;20234;-72
2022/11/29 00:42:01;;;;;;;43.50;19.57;;;;;4.20;96041.00;;;;8539249;27;20196;-72
2022/11/29 00:46:04;;;;;;;48.03;20.20;;;;;4.20;96047.00;;;;8538090;27;20253;-71
2022/11/29 00:50:38;;;;;;;48.53;20.10;;;;;4.20;96046.00;;;;8538505;27;20217;-71
2022/11/29 00:54:43;;;;;;;43.77;18.70;;;;;4.20;96044.00;;;;8538030;27;20232;-71
2022/11/29 00:58:48;;;;;;;44.57;18.60;;;;;4.20;96037.00;;;;8538156;27;20292;-71
2022/11/29 01:02:57;;;;;;;42.63;19.37;;;;;4.20;96038.00;;;;8537683;27;20204;-70
2022/11/29 01:07:00;;;;;;;38.77;17.20;;;;;4.20;96032.00;;;;8538585;27;20611;-71
2022/11/29 01:11:07;;;;;;;49.03;19.20;;;;;4.30;96047.00;;;;8538308;27;20197;-71
2022/11/29 01:15:11;;;;;;;44.17;19.20;;;;;4.30;96039.00;;;;8537510;27;20221;-71
2022/11/29 01:19:48;;;;;;;42.13;18.70;;;;;4.30;96043.00;;;;8537708;27;20193;-71
2022/11/29 01:23:53;;;;;;;45.17;17.50;;;;;4.20;96050.00;;;;8537705;27;20194;-71
2022/11/29 01:27:58;;;;;;;39.93;17.53;;;;;4.20;96044.00;;;;8537108;27;20639;-71
2022/11/29 01:32:01;;;;;;;37.77;18.00;;;;;4.20;96038.00;;;;8537047;27;20227;-71
2022/11/29 01:36:07;;;;;;;41.77;17.50;;;;;4.20;96039.00;;;;8537108;27;20210;-71
2022/11/29 01:40:10;;;;;;;37.20;17.27;;;;;4.20;96038.00;;;;8536835;27;20526;-72
2022/11/29 01:44:46;;;;;;;39.07;17.23;;;;;4.20;96038.00;;;;8536652;27;20201;-72
2022/11/29 01:49:33;;;;;;;38.00;16.97;;;;;4.10;96039.00;;;;8536571;27;20201;-72
2022/11/29 01:53:38;;;;;;;36.80;16.67;;;;;4.10;96039.00;;;;8536646;27;20281;-72
2022/11/29 01:57:42;;;;;;;37.23;16.87;;;;;4.10;96040.00;;;;8536291;27;20197;-72
2022/11/29 02:02:19;;;;;;;39.43;17.20;;;;;4.10;96038.00;;;;8536337;27;20201;-72
2022/11/29 02:06:23;;;;;;;38.07;16.53;;;;;4.10;96032.00;;;;8536397;27;20638;-72
2022/11/29 02:10:35;;;;;;;36.33;16.97;;;;;4.10;96037.00;;;;8536248;27;20193;-72
2022/11/29 02:15:06;;;;;;;40.97;18.33;;;;;4.10;96034.00;;;;8535429;27;20596;-72
2022/11/29 02:19:42;;;;;;;43.53;17.87;;;;;4.10;96040.00;;;;8533258;27;20688;-72
2022/11/29 02:24:11;;;;;;;36.67;16.63;;;;;4.10;96036.00;;;;8535302;27;20532;-72
2022/11/29 02:29:11;;;;;;;45.07;17.67;;;;;4.20;96028.00;;;;8536417;27;20527;-72
2022/11/29 02:33:38;;;;;;;45.80;18.47;;;;;4.20;96034.00;;;;8536071;27;20684;-72
2022/11/29 02:37:55;;;;;;;38.73;17.63;;;;;4.20;96034.00;;;;8534961;27;20200;-72
2022/11/29 02:42:15;;;;;;;43.90;18.53;;;;;4.10;96038.00;;;;8534141;27;20216;-71
2022/11/29 02:46:49;;;;;;;40.57;17.20;;;;;4.10;96039.00;;;;8534705;27;20637;-71
2022/11/29 02:50:59;;;;;;;42.83;18.47;;;;;4.20;96027.00;;;;8534787;27;20211;-71
2022/11/29 02:55:34;;;;;;;45.10;19.30;;;;;4.20;96031.00;;;;8532734;27;20542;-71
2022/11/29 02:59:48;;;;;;;43.27;17.80;;;;;4.20;96039.00;;;;8535543;27;20200;-71
2022/11/29 03:04:21;;;;;;;41.63;18.03;;;;;4.20;96035.00;;;;8533794;27;20627;-71
2022/11/29 03:08:34;;;;;;;45.10;18.27;;;;;4.20;96043.00;;;;8535004;27;20610;-71
2022/11/29 03:12:40;;;;;;;54.97;19.23;;;;;4.20;96040.00;;;;8533795;27;20225;-72
2022/11/29 03:16:51;;;;;;;44.67;17.07;;;;;4.20;96048.00;;;;8533451;27;20185;-71
2022/11/29 03:21:04;;;;;;;39.73;16.43;;;;;4.20;96049.00;;;;8532852;27;20245;-71
2022/11/29 03:25:17;;;;;;;47.37;18.60;;;;;4.30;96049.00;;;;8534417;27;20538;-72
2022/11/29 03:29:27;;;;;;;41.43;17.83;;;;;4.30;96058.00;;;;8533480;27;20213;-72
2022/11/29 03:33:37;;;;;;;42.47;16.77;;;;;4.30;96054.00;;;;8533124;27;20221;-72
2022/11/29 03:37:48;;;;;;;42.60;17.87;;;;;4.30;96060.00;;;;8533337;27;20185;-72
2022/11/29 03:41:58;;;;;;;46.27;18.23;;;;;4.30;96063.00;;;;8532344;27;20193;-72
2022/11/29 03:46:06;;;;;;;44.83;18.77;;;;;4.30;96062.00;;;;8533726;27;20201;-73
2022/11/29 03:50:38;;;;;;;46.97;19.03;;;;;4.30;96060.00;;;;8533488;27;20619;-72
2022/11/29 03:54:50;;;;;;;41.87;16.97;;;;;4.30;96064.00;;;;8533228;27;20566;-72
2022/11/29 03:59:03;;;;;;;54.13;18.57;;;;;4.40;96069.00;;;;8531746;27;20177;-73
2022/11/29 04:03:34;;;;;;;45.80;18.03;;;;;4.40;96068.00;;;;8533244;27;20189;-72
2022/11/29 04:08:20;;;;;;;48.27;19.43;;;;;4.30;96075.00;;;;8529650;27;20197;-72
2022/11/29 04:13:01;;;;;;;44.80;17.73;;;;;4.30;96066.00;;;;8532980;27;20591;-72
2022/11/29 04:17:41;;;;;;;46.27;20.03;;;;;4.30;96058.00;;;;8531875;27;20197;-72
2022/11/29 04:22:20;;;;;;;42.40;18.23;;;;;4.30;96066.00;;;;8532292;27;20200;-72
2022/11/29 04:27:08;;;;;;;52.47;20.23;;;;;4.30;96075.00;;;;8532543;27;20190;-72
2022/11/29 04:31:22;;;;;;;51.43;18.10;;;;;4.40;96073.00;;;;8450436;27;20665;-72
2022/11/29 04:36:01;;;;;;;48.10;19.30;;;;;4.40;96078.00;;;;8531681;27;20666;-71
2022/11/29 04:40:25;;;;;;;43.83;18.70;;;;;4.40;96077.00;;;;8489954;27;20634;-72
2022/11/29 04:45:08;;;;;;;49.37;19.37;;;;;4.40;96079.00;;;;8528513;27;20641;-72
2022/11/29 04:49:50;;;;;;;43.70;17.97;;;;;4.40;96082.00;;;;8532159;27;20189;-72
2022/11/29 04:54:14;;;;;;;53.73;18.77;;;;;4.40;96083.00;;;;8527729;27;20732;-72
2022/11/29 04:58:41;;;;;;;49.50;17.77;;;;;4.40;96083.00;;;;8531993;27;20197;-72
2022/11/29 05:03:20;;;;;;;49.73;17.93;;;;;4.40;96093.00;;;;8531472;27;20637;-72
2022/11/29 05:07:31;;;;;;;46.00;18.20;;;;;4.40;96091.00;;;;8531830;27;20239;-72
2022/11/29 05:12:06;;;;;;;43.80;17.70;;;;;4.40;96092.00;;;;8534333;27;20197;-73
2022/11/29 05:16:41;;;;;;;42.00;18.17;;;;;4.40;96092.00;;;;8536974;27;20674;-72
2022/11/29 05:26:20;;;;;;;49.97;17.80;;;;;4.40;96095.00;;;;8536158;27;20197;-74
2022/11/29 05:31:07;;;;;;;44.30;17.13;;;;;4.50;96098.00;;;;8537558;27;20252;-73
2022/11/29 05:40:49;;;;;;;55.03;18.47;;;;;4.50;96100.00;;;;8537115;27;20197;-72
2022/11/29 05:45:18;;;;;;;48.43;18.17;;;;;4.40;96103.00;;;;8536407;27;20194;-73
2022/11/29 05:49:58;;;;;;;51.13;19.13;;;;;4.50;96108.00;;;;8536418;27;20627;-72
2022/11/29 05:54:31;;;;;;;50.47;18.77;;;;;4.40;96107.00;;;;8536628;27;20221;-73
2022/11/29 05:59:08;;;;;;;57.73;19.40;;;;;4.40;96103.00;;;;8536715;27;20190;-72
2022/11/29 06:03:21;;;;;;;44.90;18.90;;;;;4.50;96106.00;;;;8536122;27;20239;-72
2022/11/29 06:07:50;;;;;;;51.80;20.03;;;;;4.50;96110.00;;;;8536478;27;20523;-73
2022/11/29 06:12:01;;;;;;;53.13;20.07;;;;;4.50;96108.00;;;;8536410;27;20190;-72
2022/11/29 06:16:33;;;;;;;58.03;18.90;;;;;4.60;96113.00;;;;8536019;27;20221;-72
2022/11/29 06:21:02;;;;;;;47.90;18.47;;;;;4.60;96119.00;;;;8509834;27;20197;-73
2022/11/29 06:25:19;;;;;;;57.70;20.43;;;;;4.60;96118.00;;;;8531824;27;20194;-72
2022/11/29 06:29:49;;;;;;;59.33;20.10;;;;;4.60;96128.00;;;;8535922;27;20214;-72
2022/11/29 06:34:02;;;;;;;50.70;20.33;;;;;4.60;96129.00;;;;8535751;27;20543;-72
2022/11/29 06:38:14;;;;;;;51.27;19.93;;;;;4.60;96127.00;;;;8535889;27;20673;-72
2022/11/29 06:42:42;;;;;;;44.73;17.00;;;;;4.60;96137.00;;;;8535066;27;20193;-72
2022/11/29 06:46:47;;;;;;;51.50;19.43;;;;;4.60;96137.00;;;;8536196;27;20196;-72
2022/11/29 06:50:59;;;;;;;48.07;18.33;;;;;4.60;96138.00;;;;8534576;27;20544;-72
2022/11/29 06:55:12;;;;;;;57.43;20.30;;;;;4.60;96134.00;;;;8535087;27;20218;-71
2022/11/29 06:59:32;;;;;;;53.97;20.53;;;;;4.60;96143.00;;;;8534477;27;20654;-72
2022/11/29 07:04:02;;;;;;;51.77;19.40;;;;;4.50;96148.00;;;;8533984;27;20249;-71
2022/11/29 07:08:14;;;;;;;58.33;21.57;;;;;4.60;96155.00;;;;8534733;27;20534;-72
2022/11/29 07:12:42;;;;;;;60.30;20.23;;;;;4.60;96157.00;;;;8534594;27;20538;-73
2022/11/29 07:16:53;;;;;;;55.23;20.17;;;;;4.60;96160.00;;;;8534117;27;20543;-72
2022/11/29 07:21:23;;;;;;;56.50;20.30;;;;;4.60;96163.00;;;;8533859;27;20189;-72
2022/11/29 07:25:38;;;;;;;55.50;19.50;;;;;4.60;96158.00;;;;8534229;27;20655;-74
2022/11/29 07:30:06;;;;;;;54.10;19.57;;;;;4.70;96164.00;;;;8533753;27;20544;-73
2022/11/29 07:34:16;;;;;;;54.23;19.57;;;;;4.70;96164.00;;;;8533397;27;20224;-73
2022/11/29 07:38:53;;;;;;;58.07;21.43;;;;;4.80;96170.00;;;;8533616;27;20173;-73
2022/11/29 07:43:13;;;;;;;48.00;19.47;;;;;4.80;96168.00;;;;8533005;27;20194;-73
2022/11/29 07:47:34;;;;;;;55.60;20.50;;;;;4.80;96174.00;;;;8533703;27;20189;-73
2022/11/29 07:51:38;;;;;;;56.37;20.17;;;;;4.90;96180.00;;;;8532964;27;20189;-73
2022/11/29 07:55:41;;;;;;;56.07;20.53;;;;;4.90;96175.00;;;;8532749;27;20309;-74
2022/11/29 08:00:18;;;;;;;46.13;20.07;;;;;5.00;96172.00;;;;8532389;27;20704;-73
2022/11/29 08:04:22;;;;;;;59.47;20.57;;;;;5.00;96180.00;;;;8533060;27;20204;-72
2022/11/29 08:08:25;;;;;;;57.20;20.50;;;;;5.00;96178.00;;;;8532747;27;20230;-73
2022/11/29 08:12:29;;;;;;;53.40;20.60;;;;;5.10;96190.00;;;;8533615;27;20197;-73
2022/11/29 08:21:31;;;;;;;57.20;19.47;;;;;5.10;96192.00;;;;8533053;27;20193;-72
2022/11/29 08:26:05;;;;;;;54.13;19.27;;;;;5.10;96199.00;;;;8531999;27;20196;-72
2022/11/29 08:30:09;;;;;;;49.43;18.57;;;;;5.20;96204.00;;;;8533402;27;20289;-72
2022/11/29 08:34:12;;;;;;;60.50;19.43;;;;;5.20;96203.00;;;;8532622;27;20217;-72
2022/11/29 08:38:17;;;;;;;56.50;20.50;;;;;5.30;96204.00;;;;8532735;27;20197;-73
2022/11/29 08:42:20;;;;;;;55.53;20.20;;;;;5.40;96207.00;;;;8532791;27;20205;-72
2022/11/29 08:47:34;;;;;;;55.50;21.23;;;;;5.40;96209.00;;;;8537726;27;20189;-73
2022/11/29 08:50:48;;;;;;;51.80;20.27;;;;;5.50;96210.00;;;;8539080;27;20189;-73
2022/11/29 08:54:53;;;;;;;54.27;19.90;;;;;5.50;96210.00;;;;8538331;27;20213;-74
2022/11/29 08:59:28;;;;;;;52.20;20.30;;;;;5.50;96214.00;;;;8538991;27;20181;-74
2022/11/29 09:08:08;;;;;;;54.60;19.33;;;;;5.50;96219.00;;;;8538344;27;20622;-74
2022/11/29 09:12:12;;;;;;;50.83;19.63;;;;;5.60;96227.00;;;;8536985;27;20189;-74
2022/11/29 09:21:14;;;;;;;54.97;19.67;;;;;5.70;96230.00;;;;8536884;27;20189;-74
2022/11/29 09:25:48;;;;;;;56.03;18.87;;;;;5.70;96234.00;;;;8537974;27;20534;-74
2022/11/29 09:30:28;;;;;;;50.90;18.97;;;;;5.70;96235.00;;;;8537577;27;20217;-74
2022/11/29 09:34:31;;;;;;;46.33;17.97;;;;;5.80;96239.00;;;;8537350;27;20224;-73
2022/11/29 09:39:08;;;;;;;48.57;19.10;;;;;5.90;96242.00;;;;8537308;27;20261;-73
2022/11/29 09:43:20;;;;;;;55.50;18.60;;;;;5.90;96240.00;;;;8537211;27;20197;-74
2022/11/29 09:48:02;;;;;;;52.80;18.40;;;;;5.90;96242.00;;;;8536500;27;20186;-74
2022/11/29 09:52:36;;;;;;;44.97;17.70;;;;;6.10;96245.00;;;;8529861;27;20241;-73
2022/11/29 09:56:57;;;;;;;53.37;19.17;;;;;6.10;96244.00;;;;8535617;27;20216;-74
2022/11/29 10:01:06;;;;;;;42.97;17.87;;;;;6.20;96257.00;;;;8537498;27;20213;-72
2022/11/29 10:05:37;;;;;;;45.03;18.37;;;;;6.30;96251.00;;;;8536111;27;20205;-73
2022/11/29 10:09:47;;;;;;;49.73;17.83;;;;;6.20;96248.00;;;;8536088;27;20265;-73
2022/11/29 10:14:16;;;;;;;46.03;17.50;;;;;6.20;96247.00;;;;8535349;27;20661;-73
2022/11/29 10:18:23;;;;;;;43.83;17.67;;;;;6.20;96248.00;;;;8537126;27;20542;-73
2022/11/29 10:22:58;;;;;;;39.70;17.03;;;;;6.30;96244.00;;;;8534300;27;20238;-74
2022/11/29 10:27:12;;;;;;;41.73;16.37;;;;;6.30;96242.00;;;;8536102;27;20608;-76
2022/11/29 10:31:39;;;;;;;41.90;16.27;;;;;6.30;96247.00;;;;8536191;27;20555;-74
2022/11/29 10:35:42;;;;;;;47.60;16.67;;;;;6.30;96244.00;;;;8535881;27;20217;-74
2022/11/29 10:39:48;;;;;;;44.73;17.87;;;;;6.40;96239.00;;;;8535707;27;20189;-74
2022/11/29 10:43:55;;;;;;;40.90;16.30;;;;;6.50;96244.00;;;;8535760;27;20185;-74
2022/11/29 10:48:31;;;;;;;38.87;15.57;;;;;6.50;96234.00;;;;8534581;27;20223;-74
2022/11/29 10:53:07;;;;;;;41.27;16.13;;;;;6.50;96231.00;;;;8534775;27;20178;-76
2022/11/29 10:57:56;;;;;;;43.67;16.37;;;;;6.40;96238.00;;;;8534541;27;20225;-75
2022/11/29 11:02:03;;;;;;;38.60;16.03;;;;;6.50;96236.00;;;;8534246;27;20189;-76
2022/11/29 11:06:33;;;;;;;34.13;15.40;;;;;6.50;96242.00;;;;8534390;27;20190;-75
2022/11/29 11:10:37;;;;;;;39.07;15.67;;;;;6.50;96243.00;;;;8534523;27;20193;-75
2022/11/29 11:15:16;;;;;;;37.87;15.37;;;;;6.50;96247.00;;;;8533716;27;20193;-75
2022/11/29 11:19:31;;;;;;;32.73;15.70;;;;;6.50;96242.00;;;;8534961;27;20249;-74
2022/11/29 11:24:02;;;;;;;42.43;17.40;;;;;6.50;96246.00;;;;8534270;27;20186;-74
2022/11/29 11:28:16;;;;;;;35.63;14.63;;;;;6.50;96244.00;;;;8533819;27;20546;-74
2022/11/29 11:33:02;;;;;;;34.60;15.27;;;;;6.40;96248.00;;;;8534456;27;20198;-74
2022/11/29 11:37:21;;;;;;;32.17;13.90;;;;;6.40;96248.00;;;;8533054;27;20225;-74
2022/11/29 11:46:08;;;;;;;37.67;16.27;;;;;6.50;96258.00;;;;8533274;27;20182;-73
2022/11/29 11:50:49;;;;;;;49.47;16.93;;;;;6.60;96266.00;;;;8532708;27;20181;-74
2022/11/29 11:54:57;;;;;;;39.23;15.83;;;;;6.60;96259.00;;;;8533177;27;20190;-75
2022/11/29 11:59:29;;;;;;;38.20;15.63;;;;;6.40;96263.00;;;;8531528;27;20193;-74
2022/11/29 12:04:05;;;;;;;42.27;15.07;;;;;6.30;96260.00;;;;8533182;27;20644;-74
2022/11/29 12:08:13;;;;;;;38.33;15.40;;;;;6.30;96264.00;;;;8532612;27;20189;-73
2022/11/29 12:12:49;;;;;;;39.70;15.80;;;;;6.30;96265.00;;;;8532681;27;20296;-73
2022/11/29 12:17:03;;;;;;;43.80;16.00;;;;;6.30;96267.00;;;;8532908;27;20258;-73
2022/11/29 12:21:31;;;;;;;38.67;16.53;;;;;6.30;96266.00;;;;8538641;27;20229;-73
2022/11/29 12:25:44;;;;;;;43.73;16.53;;;;;6.40;96267.00;;;;8537658;27;20193;-73
2022/11/29 12:30:14;;;;;;;38.57;15.63;;;;;6.50;96266.00;;;;8539529;27;20259;-74
2022/11/29 12:34:58;;;;;;;37.27;14.23;;;;;6.50;96278.00;;;;8540015;27;20201;-75
2022/11/29 12:39:27;;;;;;;37.50;15.30;;;;;6.50;96269.00;;;;8539052;27;20197;-74
2022/11/29 12:44:09;;;;;;;36.63;14.80;;;;;6.50;96270.00;;;;8538968;27;20193;-75
2022/11/29 12:48:28;;;;;;;38.27;13.93;;;;;6.60;96273.00;;;;8539134;27;20189;-75
2022/11/29 12:52:54;;;;;;;37.83;14.93;;;;;6.50;96276.00;;;;8540165;27;20277;-75
2022/11/29 12:57:07;;;;;;;38.87;15.53;;;;;6.50;96276.00;;;;8537847;27;20208;-74
2022/11/29 13:01:36;;;;;;;31.90;14.23;;;;;6.40;96277.00;;;;8538461;27;20197;-73
2022/11/29 13:05:58;;;;;;;36.20;15.77;;;;;6.40;96280.00;;;;8538415;27;20197;-74
2022/11/29 13:10:20;;;;;;;33.80;14.43;;;;;6.40;96281.00;;;;8538070;27;20642;-74
2022/11/29 13:14:55;;;;;;;35.17;15.37;;;;;6.20;96275.00;;;;8538021;27;20622;-74
2022/11/29 13:19:34;;;;;;;44.33;15.23;;;;;6.10;96278.00;;;;8539070;27;20323;-75
2022/11/29 13:23:45;;;;;;;50.50;17.10;;;;;6.10;96287.00;;;;8537687;27;20508;-76
2022/11/29 13:28:19;;;;;;;43.80;16.40;;;;;6.00;96287.00;;;;8538374;27;20209;-77
2022/11/29 13:32:35;;;;;;;44.17;16.50;;;;;6.00;96287.00;;;;8535959;27;20553;-78
2022/11/29 13:36:50;;;;;;;38.50;15.57;;;;;6.10;96293.00;;;;8538048;27;20294;-77
2022/11/29 13:41:20;;;;;;;40.60;16.30;;;;;6.10;96301.00;;;;8537620;27;20600;-78
2022/11/29 13:45:29;;;;;;;41.07;15.73;;;;;6.00;96297.00;;;;8537458;27;20196;-78
2022/11/29 13:50:00;;;;;;;44.30;17.47;;;;;6.00;96308.00;;;;8536457;27;20189;-78
2022/11/29 13:54:05;;;;;;;34.10;15.30;;;;;6.00;96302.00;;;;8537387;27;20189;-77
2022/11/29 13:58:35;;;;;;;42.83;16.03;;;;;6.00;96308.00;;;;8537080;27;20217;-78
2022/11/29 14:03:15;;;;;;;33.90;14.43;;;;;5.90;96308.00;;;;8520500;27;20196;-78
2022/11/29 14:07:19;;;;;;;41.63;15.53;;;;;5.90;96302.00;;;;8535888;27;20201;-78
2022/11/29 14:11:25;;;;;;;36.87;15.00;;;;;5.90;96311.00;;;;8536838;27;20322;-78
2022/11/29 14:15:32;;;;;;;37.77;14.43;;;;;5.90;96309.00;;;;8535921;27;20185;-79
2022/11/29 14:19:36;;;;;;;43.97;16.27;;;;;5.90;96313.00;;;;8536075;27;20703;-78
2022/11/29 14:23:41;;;;;;;36.07;14.40;;;;;5.90;96321.00;;;;8535649;27;20197;-78
2022/11/29 14:28:24;;;;;;;46.60;16.27;;;;;5.90;96320.00;;;;8535503;27;20242;-78
2022/11/29 14:32:35;;;;;;;41.63;17.27;;;;;5.80;96310.00;;;;8535670;27;20222;-78
2022/11/29 14:37:06;;;;;;;39.27;15.57;;;;;5.80;96318.00;;;;8535537;27;20177;-78
2022/11/29 14:41:22;;;;;;;40.60;15.97;;;;;5.70;96306.00;;;;8534322;27;20185;-78
2022/11/29 14:45:28;;;;;;;39.60;14.60;;;;;5.70;96313.00;;;;8536059;27;20261;-78
2022/11/29 14:50:06;;;;;;;33.03;14.70;;;;;5.70;96310.00;;;;8535826;27;20213;-76
2022/11/29 14:54:15;;;;;;;45.00;16.07;;;;;5.60;96316.00;;;;8535863;27;20242;-76
2022/11/29 14:58:21;;;;;;;42.07;15.23;;;;;5.60;96318.00;;;;8534351;27;20189;-78
2022/11/29 15:02:32;;;;;;;41.97;14.87;;;;;5.60;96319.00;;;;8534230;27;20189;-79
2022/11/29 15:07:03;;;;;;;45.67;16.97;;;;;5.60;96328.00;;;;8534970;27;20717;-76
2022/11/29 15:11:14;;;;;;;39.73;14.50;;;;;5.60;96330.00;;;;8534718;27;20193;-76
2022/11/29 15:15:49;;;;;;;30.90;13.87;;;;;5.60;96333.00;;;;8535748;27;20197;-78
2022/11/29 15:20:19;;;;;;;38.67;14.50;;;;;5.50;96333.00;;;;8534901;27;20220;-79
2022/11/29 15:24:23;;;;;;;40.07;14.10;;;;;5.50;96333.00;;;;8533975;27;20558;-80
2022/11/29 15:29:12;;;;;;;36.40;13.93;;;;;5.50;96336.00;;;;8533867;27;20316;-79
2022/11/29 15:33:20;;;;;;;42.93;13.57;;;;;5.60;96335.00;;;;8529390;27;20197;-80
2022/11/29 15:37:51;;;;;;;40.47;14.83;;;;;5.60;96337.00;;;;8533357;27;20230;-77
2022/11/29 15:42:02;;;;;;;33.33;13.20;;;;;5.60;96334.00;;;;8533853;27;20261;-77
2022/11/29 15:46:31;;;;;;;41.13;14.97;;;;;5.70;96346.00;;;;8532801;27;20238;-76
2022/11/29 15:51:08;;;;;;;76.87;28.10;;;;;5.70;96347.00;;;;8532023;27;20197;-77
2022/11/29 15:55:42;;;;;;;37.43;14.83;;;;;5.80;96346.00;;;;8533114;27;20190;-77
2022/11/29 16:00:22;;;;;;;40.83;14.33;;;;;5.70;96350.00;;;;8532898;27;20194;-76
2022/11/29 16:04:55;;;;;;;42.40;15.30;;;;;5.70;96348.00;;;;8532612;27;20526;-73
2022/11/29 16:09:00;;;;;;;43.73;17.50;;;;;5.70;96348.00;;;;8532508;27;20532;-78
2022/11/29 16:13:34;;;;;;;48.20;18.03;;;;;5.70;96351.00;;;;8532333;27;20200;-77
2022/11/29 16:17:38;;;;;;;45.87;16.50;;;;;5.70;96357.00;;;;8532071;27;20201;-77
2022/11/29 16:22:17;;;;;;;42.50;16.77;;;;;5.60;96363.00;;;;8533135;27;20185;-76
2022/11/29 16:26:49;;;;;;;61.50;19.00;;;;;5.60;96357.00;;;;8532104;27;20301;-76
2022/11/29 16:30:54;;;;;;;43.53;15.63;;;;;5.60;96374.00;;;;8532506;27;20542;-74
2022/11/29 16:35:33;;;;;;;40.43;14.27;;;;;5.60;96375.00;;;;8532087;27;20197;-77
2022/11/29 16:39:38;;;;;;;40.40;13.23;;;;;5.60;96380.00;;;;8532705;27;20186;-77
2022/11/29 16:43:52;;;;;;;29.97;13.43;;;;;5.50;96380.00;;;;8532385;27;20193;-77
2022/11/29 16:48:30;;;;;;;33.87;14.50;;;;;5.50;96373.00;;;;8531624;27;20194;-75
2022/11/29 16:53:22;;;;;;;40.23;14.53;;;;;5.40;96373.00;;;;8531499;27;20194;-74
2022/11/29 16:57:28;;;;;;;39.63;14.07;;;;;5.40;96374.00;;;;8402249;27;20691;-75
2022/11/29 17:02:02;;;;;;;41.20;16.03;;;;;5.40;96367.00;;;;8531845;27;20185;-75
2022/11/29 17:06:39;;;;;;;40.43;16.93;;;;;5.40;96374.00;;;;8535635;27;20222;-73
2022/11/29 17:10:43;;;;;;;44.87;15.80;;;;;5.40;96376.00;;;;8538864;27;20189;-73
2022/11/29 17:15:21;;;;;;;33.80;13.53;;;;;5.40;96387.00;;;;8536695;27;20641;-73
2022/11/29 17:24:55;;;;;;;33.33;14.00;;;;;5.50;96392.00;;;;8537855;27;20250;-74
2022/11/29 17:28:58;;;;;;;30.90;12.53;;;;;5.50;96385.00;;;;8537222;27;20655;-74
2022/11/29 17:33:03;;;;;;;28.87;12.93;;;;;5.60;96389.00;;;;8537173;27;20193;-75
2022/11/29 17:37:43;;;;;;;30.83;13.47;;;;;5.50;96389.00;;;;8537283;27;20258;-76
2022/11/29 17:42:17;;;;;;;29.77;13.33;;;;;5.40;96391.00;;;;8537126;27;20185;-75
2022/11/29 17:46:22;;;;;;;37.13;15.13;;;;;5.50;96401.00;;;;8537137;27;20221;-75
2022/11/29 17:50:56;;;;;;;37.13;15.60;;;;;5.50;96397.00;;;;8536577;27;20707;-72
2022/11/29 17:55:34;;;;;;;29.43;12.80;;;;;5.50;96410.00;;;;8535924;27;20182;-73
2022/11/29 17:59:37;;;;;;;33.57;13.60;;;;;5.50;96404.00;;;;8536136;27;20193;-72
2022/11/29 18:04:14;;;;;;;32.70;12.53;;;;;5.50;96408.00;;;;8534988;27;20189;-72
2022/11/29 18:08:52;;;;;;;31.80;13.23;;;;;5.50;96412.00;;;;8536945;27;20217;-72
2022/11/29 18:13:31;;;;;;;32.73;14.00;;;;;5.50;96412.00;;;;8535828;27;20222;-73
2022/11/29 18:17:34;;;;;;;26.50;12.57;;;;;5.50;96410.00;;;;8533380;27;20211;-72
2022/11/29 18:22:10;;;;;;;23.93;11.30;;;;;5.40;96404.00;;;;8535432;27;20182;-71
2022/11/29 18:26:47;;;;;;;22.03;10.20;;;;;5.40;96407.00;;;;8535083;27;20193;-71
2022/11/29 18:31:24;;;;;;;33.73;13.27;;;;;5.30;96399.00;;;;8535283;27;20221;-70
2022/11/29 18:36:00;;;;;;;25.17;11.50;;;;;5.30;96402.00;;;;8536116;27;20634;-70
2022/11/29 18:40:39;;;;;;;22.00;9.30;;;;;5.30;96410.00;;;;8534873;27;20194;-70
2022/11/29 18:45:13;;;;;;;26.97;10.27;;;;;5.20;96406.00;;;;8534570;27;20194;-70
2022/11/29 18:49:50;;;;;;;24.17;10.03;;;;;5.20;96415.00;;;;8534732;27;20666;-70
2022/11/29 18:54:29;;;;;;;25.57;10.57;;;;;5.20;96416.00;;;;8534529;27;20190;-70
2022/11/29 18:59:07;;;;;;;39.43;14.47;;;;;5.20;96429.00;;;;8534041;27;20230;-70
2022/11/29 19:03:42;;;;;;;34.10;12.40;;;;;5.30;96431.00;;;;8534659;27;20181;-70
2022/11/29 19:08:19;;;;;;;40.83;13.87;;;;;5.30;96430.00;;;;8533450;27;20217;-71
2022/11/29 19:12:55;;;;;;;25.00;10.30;;;;;5.40;96444.00;;;;8534438;27;20653;-71
2022/11/29 19:17:34;;;;;;;29.20;12.27;;;;;5.40;96438.00;;;;8533624;27;20285;-71
2022/11/29 19:21:44;;;;;;;28.50;13.00;;;;;5.40;96437.00;;;;8535224;27;20743;-72
2022/11/29 19:26:22;;;;;;;28.27;12.30;;;;;5.40;96437.00;;;;8533197;27;20215;-72
2022/11/29 19:30:25;;;;;;;32.80;12.83;;;;;5.30;96442.00;;;;8533165;27;20658;-71
2022/11/29 19:35:03;;;;;;;35.50;13.40;;;;;5.30;96460.00;;;;8533716;27;20205;-72
2022/11/29 19:39:37;;;;;;;29.63;11.50;;;;;5.30;96453.00;;;;8533859;27;20630;-72
2022/11/29 19:43:40;;;;;;;23.60;10.30;;;;;5.30;96455.00;;;;8533852;27;20626;-72
2022/11/29 19:48:17;;;;;;;14.73;7.53;;;;;5.20;96456.00;;;;8533874;27;20256;-72
2022/11/29 19:52:22;;;;;;;18.03;7.93;;;;;5.20;96453.00;;;;8532665;27;20204;-72
2022/11/29 19:56:57;;;;;;;19.17;9.50;;;;;5.20;96466.00;;;;8533344;27;20212;-72
2022/11/29 20:01:05;;;;;;;25.80;9.70;;;;;5.20;96464.00;;;;8533271;27;20185;-72
2022/11/29 20:05:09;;;;;;;24.93;10.43;;;;;5.20;96468.00;;;;8532876;27;20277;-72
2022/11/29 20:09:44;;;;;;;26.30;11.33;;;;;5.20;96471.00;;;;8532983;27;20217;-72
2022/11/29 20:14:18;;;;;;;22.00;9.47;;;;;5.20;96477.00;;;;8533461;27;20220;-72
2022/11/29 20:18:21;;;;;;;31.80;12.17;;;;;5.20;96485.00;;;;8532662;27;20627;-72
2022/11/29 20:22:24;;;;;;;25.53;10.87;;;;;5.20;96492.00;;;;8531129;27;20265;-72
2022/11/29 20:26:30;;;;;;;32.10;11.33;;;;;5.20;96495.00;;;;8533607;27;20597;-72
2022/11/29 20:31:07;;;;;;;27.40;12.00;;;;;5.30;96500.00;;;;8528822;27;20662;-73
2022/11/29 20:35:11;;;;;;;32.30;13.47;;;;;5.30;96504.00;;;;8532250;27;20196;-73
2022/11/29 20:39:28;;;;;;;34.33;13.73;;;;;5.30;96499.00;;;;8532522;27;20189;-73
2022/11/29 20:43:54;;;;;;;33.23;13.33;;;;;5.30;96491.00;;;;8539588;27;20193;-73
2022/11/29 20:48:01;;;;;;;35.50;13.77;;;;;5.30;96495.00;;;;8539162;27;20634;-73
2022/11/29 20:52:07;;;;;;;33.80;13.20;;;;;5.30;96501.00;;;;8539533;27;20536;-73
2022/11/29 20:56:40;;;;;;;28.10;11.80;;;;;5.30;96491.00;;;;8539247;27;20642;-73
2022/11/29 21:01:19;;;;;;;34.30;12.87;;;;;5.30;96499.00;;;;8538740;27;20198;-73
2022/11/29 21:05:22;;;;;;;34.33;12.83;;;;;5.20;96495.00;;;;8538204;27;20618;-73
2022/11/29 21:09:59;;;;;;;29.37;11.87;;;;;5.20;96507.00;;;;8538377;27;20273;-73
2022/11/29 21:14:05;;;;;;;32.47;12.53;;;;;5.30;96514.00;;;;8538917;27;20628;-73
2022/11/29 21:18:42;;;;;;;35.00;12.53;;;;;5.30;96506.00;;;;8537211;27;20197;-73
2022/11/29 21:23:23;;;;;;;33.40;13.30;;;;;5.30;96512.00;;;;8537933;27;20641;-74
2022/11/29 21:27:29;;;;;;;42.07;15.87;;;;;5.30;96515.00;;;;8537391;27;20190;-73
2022/11/29 21:32:05;;;;;;;43.47;15.70;;;;;5.30;96516.00;;;;8537357;27;20225;-74
2022/11/29 21:36:09;;;;;;;32.77;13.07;;;;;5.30;96509.00;;;;8537180;27;20194;-74
2022/11/29 21:40:45;;;;;;;27.33;11.10;;;;;5.30;96499.00;;;;8538380;27;20196;-74
2022/11/29 21:44:48;;;;;;;34.73;13.00;;;;;5.30;96505.00;;;;8536461;27;20198;-74
2022/11/29 21:48:51;;;;;;;33.63;12.50;;;;;5.20;96503.00;;;;8537683;27;20584;-75
2022/11/29 21:53:28;;;;;;;38.60;13.43;;;;;5.20;96509.00;;;;8535735;27;20212;-74
2022/11/29 21:57:33;;;;;;;32.87;11.53;;;;;5.20;96506.00;;;;8537236;27;20190;-74
2022/11/29 22:02:07;;;;;;;37.60;13.07;;;;;5.20;96503.00;;;;8536106;27;20193;-74
2022/11/29 22:06:12;;;;;;;46.07;14.60;;;;;5.20;96499.00;;;;8536881;27;20268;-74